Time;durP1;ratioP1;P1;durP2;ratioP2;P2;SDS_P1;SDS_P2;PMS_P1;PMS_P2;Temp;Humidity;BMP_temperature;BMP_pressure;BME280_temperature;BME280_humidity;BME280_pressure;Samples;Min_cycle;Max_cycle;Signal;HPM_P1;HPM_P2
2022/06/29 00:00:51;;;;;;;6.47;4.97;;;;;;;20.42;65.64;100599.45;2121936;83;30099;-69
2022/06/29 00:03:52;;;;;;;5.97;5.37;;;;;;;20.42;66.32;100594.00;2124315;83;27822;-67
2022/06/29 00:06:54;;;;;;;6.17;4.65;;;;;;;20.41;66.22;100571.02;2125391;83;29969;-66
2022/06/29 00:09:55;;;;;;;5.83;4.62;;;;;;;20.39;66.80;100548.00;2125577;83;31817;-65
2022/06/29 00:12:57;;;;;;;5.60;5.10;;;;;;;20.33;66.95;100534.44;2125584;83;34105;-67
2022/06/29 00:16:00;;;;;;;6.53;5.30;;;;;;;20.31;67.15;100543.75;2125748;83;30005;-67
2022/06/29 00:19:01;;;;;;;5.92;5.35;;;;;;;20.26;67.15;100525.59;2125745;83;27602;-68
2022/06/29 00:22:03;;;;;;;4.67;4.22;;;;;;;20.23;67.27;100510.41;2120466;83;28550;-67
2022/06/29 00:25:06;;;;;;;4.85;4.37;;;;;;;20.16;67.53;100496.48;2120160;84;32264;-69
2022/06/29 00:28:08;;;;;;;5.40;4.90;;;;;;;20.11;67.69;100495.13;2120523;84;32979;-67
2022/06/29 00:31:10;;;;;;;7.03;5.17;;;;;;;20.03;68.32;100489.00;2120644;84;30075;-67
2022/06/29 00:34:11;;;;;;;5.62;5.05;;;;;;;19.97;68.23;100497.20;2120741;83;27821;-69
2022/06/29 00:37:12;;;;;;;7.28;5.33;;;;;;;19.90;69.04;100487.86;2120671;84;29672;-66
2022/06/29 00:40:14;;;;;;;7.85;5.47;;;;;;;19.85;69.01;100490.95;2120534;84;31038;-67
2022/06/29 00:43:16;;;;;;;6.50;5.90;;;;;;;19.80;69.54;100481.44;2120208;84;34218;-65
2022/06/29 00:46:17;;;;;;;6.67;6.00;;;;;;;19.76;69.68;100462.33;2120139;83;30936;-67
2022/06/29 00:49:22;;;;;;;5.25;4.70;;;;;;;19.71;69.80;100459.51;2120747;83;27668;-68
2022/06/29 00:52:25;;;;;;;5.90;5.28;;;;;;;19.69;69.33;100460.13;2122209;83;28659;-67
2022/06/29 00:55:31;;;;;;;7.50;6.50;;;;;;;19.67;69.27;100455.83;2122127;83;31824;-65
2022/06/29 00:58:33;;;;;;;6.00;5.45;;;;;;;19.65;69.73;100451.87;2122105;83;33186;-67
2022/06/29 01:01:36;;;;;;;9.40;6.17;;;;;;;19.63;69.90;100444.34;2182841;81;29627;-68
2022/06/29 01:04:38;;;;;;;5.92;5.05;;;;;;;19.60;69.81;100458.22;2179548;81;27762;-66
2022/06/29 01:07:40;;;;;;;7.37;5.37;;;;;;;19.56;69.87;100464.39;2179074;81;28788;-67
2022/06/29 01:10:42;;;;;;;6.80;6.15;;;;;;;19.56;70.39;100475.77;2178982;80;31155;-67
2022/06/29 01:13:45;;;;;;;6.85;6.25;;;;;;;19.55;69.73;100476.76;2178896;80;33024;-66
2022/06/29 01:16:47;;;;;;;6.83;6.15;;;;;;;19.54;70.03;100469.59;2179260;81;29769;-67
2022/06/29 01:19:49;;;;;;;7.03;5.67;;;;;;;19.53;70.14;100473.30;2167102;81;27677;-68
2022/06/29 01:22:52;;;;;;;6.83;5.85;;;;;;;19.51;70.27;100470.73;2139784;83;30074;-65
2022/06/29 01:25:53;;;;;;;8.23;6.03;;;;;;;19.50;70.31;100473.56;2139888;83;31037;-66
2022/06/29 01:28:55;;;;;;;7.75;6.33;;;;;;;19.48;70.23;100466.91;2139987;83;34122;-65
2022/06/29 01:31:58;;;;;;;7.00;5.72;;;;;;;19.48;71.13;100459.23;2140067;82;30081;-67
2022/06/29 01:34:59;;;;;;;6.95;6.25;;;;;;;19.48;70.92;100465.55;2139632;81;27676;-68
2022/06/29 01:38:01;;;;;;;6.12;5.53;;;;;;;19.49;70.71;100479.50;2139640;83;29877;-65
2022/06/29 01:41:08;;;;;;;6.17;5.58;;;;;;;19.50;70.16;100492.10;2139756;82;31801;-65
2022/06/29 01:44:09;;;;;;;6.92;6.22;;;;;;;19.51;70.53;100492.47;2139904;83;32954;-67
2022/06/29 01:47:11;;;;;;;6.85;5.58;;;;;;;19.52;70.75;100503.70;2139986;82;30803;-67
2022/06/29 01:50:13;;;;;;;3.87;3.45;;;;;;;19.56;70.35;100495.64;2132796;83;27632;-67
2022/06/29 01:53:15;;;;;;;6.95;5.80;;;;;;;19.59;70.50;100501.33;2131112;83;29800;-68
2022/06/29 01:56:20;;;;;;;6.20;5.42;;;;;;;19.62;70.25;100509.20;2115140;84;31952;-67
2022/06/29 01:59:22;;;;;;;7.53;5.55;;;;;;;19.66;70.18;100520.70;2115608;84;32967;-67
2022/06/29 02:02:24;;;;;;;7.95;5.60;;;;;;;19.70;70.01;100507.19;2116444;83;30816;-64
2022/06/29 02:05:25;;;;;;;7.95;5.78;;;;;;;19.73;69.97;100509.66;2125435;83;27686;-67
2022/06/29 02:08:27;;;;;;;6.12;5.53;;;;;;;19.73;70.03;100513.25;2125428;83;30017;-67
2022/06/29 02:11:29;;;;;;;5.80;5.17;;;;;;;19.75;70.00;100515.83;2125608;83;32435;-61
2022/06/29 02:14:31;;;;;;;8.80;6.12;;;;;;;19.76;70.07;100513.98;2125694;83;32961;-66
2022/06/29 02:17:33;;;;;;;8.00;5.53;;;;;;;19.78;70.31;100510.61;2125555;83;29728;-69
2022/06/29 02:20:36;;;;;;;7.17;5.75;;;;;;;19.79;70.09;100509.14;2122561;83;27710;-65
2022/06/29 02:23:38;;;;;;;6.35;5.75;;;;;;;19.78;70.07;100510.12;2120310;84;29614;-65
2022/06/29 02:26:40;;;;;;;6.75;6.17;;;;;;;19.79;70.26;100504.18;2121009;83;31050;-66
2022/06/29 02:29:43;;;;;;;6.60;5.70;;;;;;;19.80;70.48;100507.27;2120278;84;33818;-66
2022/06/29 02:36:06;;;;;;;7.33;6.72;;;;;;;19.79;70.61;100488.75;2120645;83;27698;-64
2022/06/29 02:39:09;;;;;;;8.13;7.12;;;;;;;19.77;70.48;100474.94;2120308;84;30735;-67
2022/06/29 02:42:12;;;;;;;6.08;5.47;;;;;;;19.74;70.54;100474.20;2120287;83;31921;-67
2022/06/29 02:45:16;;;;;;;8.00;6.78;;;;;;;19.70;70.79;100470.49;2116461;84;29638;-67
2022/06/29 02:48:19;;;;;;;3.02;2.72;;;;;;;19.71;70.62;100480.38;2120655;84;29806;-67
2022/06/29 02:51:21;;;;;;;11.53;7.37;;;;;;;19.72;71.00;100484.34;2121832;83;27750;-68
2022/06/29 02:54:23;;;;;;;7.67;6.97;;;;;;;19.73;70.55;100488.78;2121964;83;29395;-67
2022/06/29 02:57:26;;;;;;;8.28;7.50;;;;;;;19.71;70.74;100484.45;2121908;83;32242;-65
2022/06/29 03:00:28;;;;;;;8.20;7.40;;;;;;;19.71;70.61;100484.45;2121948;83;33066;-64
2022/06/29 03:03:31;;;;;;;8.08;7.37;;;;;;;19.71;70.65;100490.77;2121824;82;30031;-68
2022/06/29 03:06:33;;;;;;;11.10;7.72;;;;;;;19.75;70.97;100496.80;2122144;83;27595;-66
2022/06/29 03:09:35;;;;;;;12.20;7.87;;;;;;;19.75;70.71;100492.72;2121838;83;28744;-64
2022/06/29 03:12:38;;;;;;;9.45;8.43;;;;;;;19.73;71.07;100490.14;2121963;83;32416;-67
2022/06/29 03:15:40;;;;;;;11.15;9.38;;;;;;;19.71;71.01;100478.53;2122274;83;34022;-68
2022/06/29 03:18:42;;;;;;;8.78;7.97;;;;;;;19.72;70.76;100477.55;2121688;83;30805;-60
2022/06/29 03:21:44;;;;;;;5.70;4.17;;;;;;;19.70;71.46;100475.92;2120427;84;27674;-67
2022/06/29 03:24:46;;;;;;;8.55;7.70;;;;;;;19.69;71.05;100478.31;2120534;84;29718;-67
2022/06/29 03:27:48;;;;;;;10.68;9.38;;;;;;;19.71;71.47;100481.73;2120306;84;31426;-65
2022/06/29 03:30:50;;;;;;;10.93;9.83;;;;;;;19.70;70.79;100486.32;2120615;84;32936;-66
2022/06/29 03:33:52;;;;;;;10.60;9.10;;;;;;;19.70;70.81;100477.28;2120608;84;30174;-67
2022/06/29 03:36:55;;;;;;;9.80;8.85;;;;;;;19.68;70.95;100484.73;2120716;84;27611;-66
2022/06/29 03:39:57;;;;;;;15.88;9.20;;;;;;;19.68;71.11;100482.87;2120539;84;28257;-63
2022/06/29 03:42:59;;;;;;;12.50;9.40;;;;;;;19.69;70.97;100482.39;2120562;83;31194;-65
2022/06/29 03:46:00;;;;;;;10.85;9.65;;;;;;;19.69;71.01;100483.75;2120128;84;34138;-67
2022/06/29 03:49:02;;;;;;;9.83;8.83;;;;;;;19.70;71.48;100480.00;2121508;83;30362;-65
2022/06/29 03:52:08;;;;;;;13.95;8.90;;;;;;;19.70;71.34;100489.04;2126020;83;27629;-65
2022/06/29 03:55:10;;;;;;;10.35;9.35;;;;;;;19.73;71.36;100490.63;2125371;83;29283;-66
2022/06/29 03:58:12;;;;;;;15.10;9.68;;;;;;;19.77;71.14;100488.53;2125268;83;31660;-66
2022/06/29 04:01:14;;;;;;;11.83;8.68;;;;;;;19.81;71.49;100482.69;2125325;83;33406;-65
2022/06/29 04:04:17;;;;;;;12.80;9.93;;;;;;;19.83;71.04;100479.34;2125163;83;29139;-62
2022/06/29 04:07:21;;;;;;;9.53;8.50;;;;;;;19.88;71.10;100474.89;2125599;83;27720;-67
2022/06/29 04:10:24;;;;;;;10.45;7.92;;;;;;;19.96;71.33;100479.67;2125520;83;28712;-65
2022/06/29 04:13:26;;;;;;;8.85;7.92;;;;;;;19.98;71.14;100483.12;2125372;83;32349;-67
2022/06/29 04:16:28;;;;;;;11.12;10.03;;;;;;;20.00;71.51;100486.58;2125252;83;33044;-66
2022/06/29 04:19:29;;;;;;;12.47;9.38;;;;;;;20.04;70.95;100484.80;2123390;83;30163;-63
2022/06/29 04:22:31;;;;;;;9.55;8.65;;;;;;;20.07;71.34;100484.18;2120750;84;27631;-62
2022/06/29 04:25:34;;;;;;;8.58;7.78;;;;;;;20.07;71.26;100485.54;2120544;84;28781;-61
2022/06/29 04:28:37;;;;;;;5.47;4.95;;;;;;;20.06;70.99;100472.42;2120263;84;32253;-61
2022/06/29 04:31:40;;;;;;;11.30;10.10;;;;;;;20.10;71.45;100469.81;2120325;84;33699;-60
2022/06/29 04:34:43;;;;;;;11.20;9.18;;;;;;;20.13;70.84;100466.83;2120168;84;30290;-61
2022/06/29 04:37:47;;;;;;;10.38;9.38;;;;;;;20.16;70.68;100467.05;2120262;83;27627;-61
2022/06/29 04:40:49;;;;;;;11.50;10.13;;;;;;;20.16;70.57;100467.92;2120841;84;29801;-62
2022/06/29 04:43:52;;;;;;;14.60;10.13;;;;;;;20.17;70.65;100472.84;2120210;84;31666;-61
2022/06/29 04:46:56;;;;;;;5.80;5.28;;;;;;;20.21;70.60;100462.06;2120042;84;34296;-61
2022/06/29 04:49:58;;;;;;;5.03;4.23;;;;;;;20.21;70.51;100462.06;2123658;83;30285;-61
2022/06/29 04:53:00;;;;;;;10.35;8.75;;;;;;;20.22;70.80;100458.36;2125490;83;28141;-66
2022/06/29 04:56:03;;;;;;;11.05;9.05;;;;;;;20.27;70.85;100459.30;2125517;83;28646;-61
2022/06/29 04:59:06;;;;;;;6.55;6.03;;;;;;;20.28;70.73;100458.30;2125291;83;31038;-64
2022/06/29 05:02:09;;;;;;;9.28;8.40;;;;;;;20.30;70.40;100460.40;2125335;83;33569;-62
2022/06/29 05:05:11;;;;;;;11.48;8.13;;;;;;;20.40;70.47;100466.73;2119619;83;29680;-61
2022/06/29 05:08:17;;;;;;;13.50;9.58;;;;;;;20.46;70.19;100463.96;2115370;83;27708;-60
2022/06/29 05:11:23;;;;;;;9.60;8.55;;;;;;;20.48;70.19;100465.57;2114945;84;29125;-61
2022/06/29 05:14:26;;;;;;;13.35;9.13;;;;;;;20.54;70.01;100467.36;2114799;84;31889;-61
2022/06/29 05:17:35;;;;;;;11.33;8.98;;;;;;;20.61;70.18;100463.95;2115038;84;33119;-61
2022/06/29 05:20:33;;;;;;;10.78;8.80;;;;;;;20.71;69.94;100464.50;2104425;84;30897;-60
2022/06/29 05:23:35;;;;;;;10.78;9.68;;;;;;;20.79;69.72;100467.41;2105141;84;28354;-60
2022/06/29 05:26:38;;;;;;;8.63;7.87;;;;;;;20.93;69.43;100467.53;2104518;84;28640;-68
2022/06/29 05:29:59;;;;;;;13.13;9.43;;;;;;;21.05;69.12;100466.92;2104194;84;32344;-69
2022/06/29 05:33:01;;;;;;;10.68;8.35;;;;;;;21.16;68.93;100469.50;2085041;85;33833;-67
2022/06/29 05:36:06;;;;;;;8.88;7.30;;;;;;;21.24;68.77;100466.08;2085312;85;29758;-66
2022/06/29 05:39:09;;;;;;;15.63;7.47;;;;;;;21.34;68.63;100473.78;2085444;85;28255;-67
2022/06/29 05:42:14;;;;;;;10.58;9.48;;;;;;;21.44;68.50;100468.82;2085184;85;29682;-67
2022/06/29 05:45:18;;;;;;;10.00;7.97;;;;;;;21.52;68.12;100470.31;2085053;84;32354;-68
2022/06/29 05:48:22;;;;;;;8.68;7.10;;;;;;;21.57;67.90;100476.20;2085557;85;32964;-65
2022/06/29 05:51:24;;;;;;;15.30;11.12;;;;;;;21.60;67.77;100473.68;2085531;85;29649;-67
2022/06/29 05:54:26;;;;;;;12.00;10.08;;;;;;;21.63;67.59;100468.86;2085561;85;27660;-66
2022/06/29 05:57:33;;;;;;;12.13;10.82;;;;;;;21.66;67.69;100467.21;2085129;85;30078;-62
2022/06/29 06:00:36;;;;;;;9.68;7.20;;;;;;;21.74;67.47;100465.13;2085502;85;31959;-63
2022/06/29 06:03:42;;;;;;;13.18;10.78;;;;;;;21.84;67.26;100455.05;2085011;84;33657;-61
2022/06/29 06:06:45;;;;;;;12.30;7.80;;;;;;;21.99;67.16;100449.12;2085090;85;29678;-65
2022/06/29 06:09:51;;;;;;;11.38;10.23;;;;;;;22.08;66.85;100448.27;2085179;85;27718;-65
2022/06/29 06:12:53;;;;;;;11.83;10.70;;;;;;;22.21;66.71;100444.34;2085335;85;29086;-65
2022/06/29 06:15:55;;;;;;;6.92;6.10;;;;;;;22.43;66.47;100456.78;2085170;85;31576;-66
2022/06/29 06:19:02;;;;;;;12.18;10.98;;;;;;;22.73;66.18;100458.38;2085067;85;33106;-67
2022/06/29 06:22:10;;;;;;;13.15;11.75;;;;;;;23.10;65.74;100441.55;2085374;82;27743;-67
2022/06/29 06:25:20;;;;;;;9.65;6.70;;;;;;;23.65;65.21;100446.02;2085721;85;33391;-65
2022/06/29 06:28:29;;;;;;;11.88;10.68;;;;;;;24.11;64.26;100439.03;2085549;84;28705;-67
2022/06/29 06:31:31;;;;;;;6.47;5.70;;;;;;;24.54;63.89;100435.47;2094328;84;31991;-68
2022/06/29 06:34:32;;;;;;;7.85;7.03;;;;;;;24.91;62.67;100427.92;2107222;83;34154;-66
2022/06/29 06:37:34;;;;;;;8.20;6.95;;;;;;;25.36;62.09;100424.41;2107396;84;30065;-68
2022/06/29 06:43:59;;;;;;;10.80;9.75;;;;;;;26.97;58.67;100394.70;2107509;84;29836;-67
2022/06/29 06:47:01;;;;;;;13.13;10.05;;;;;;;27.70;56.43;100392.95;2114004;83;31036;-67
2022/06/29 06:50:03;;;;;;;9.18;7.22;;;;;;;28.20;54.32;100401.59;2077242;85;33351;-69
2022/06/29 06:53:04;;;;;;;2.67;2.47;;;;;;;28.44;55.11;100412.52;2110011;84;30413;-67
2022/06/29 06:56:06;;;;;;;11.40;10.20;;;;;;;28.88;54.74;100404.70;2077492;85;27701;-67
2022/06/29 06:59:08;;;;;;;6.78;5.85;;;;;;;29.31;53.95;100393.36;2109928;84;29387;-67
2022/06/29 07:02:09;;;;;;;10.28;9.20;;;;;;;29.48;52.11;100385.70;2079319;84;32294;-69
2022/06/29 07:05:10;;;;;;;10.68;9.18;;;;;;;29.53;52.76;100393.71;2107401;84;33319;-68
2022/06/29 07:08:12;;;;;;;11.90;9.98;;;;;;;29.24;51.22;100390.53;2107062;84;30082;-68
2022/06/29 07:11:13;;;;;;;11.38;9.55;;;;;;;28.80;50.85;100393.27;2107528;84;27596;-68
2022/06/29 07:14:15;;;;;;;8.63;7.83;;;;;;;28.37;51.05;100400.02;2107747;84;29230;-68
2022/06/29 07:17:16;;;;;;;9.10;7.95;;;;;;;27.97;51.79;100407.66;2107426;84;30792;-69
2022/06/29 07:20:17;;;;;;;5.42;4.80;;;;;;;27.67;51.92;100404.86;2107353;84;32869;-69
2022/06/29 07:23:19;;;;;;;10.32;9.23;;;;;;;27.58;52.22;100409.05;2107193;84;30271;-67
2022/06/29 07:26:22;;;;;;;7.15;6.47;;;;;;;27.58;52.15;100409.05;2107595;84;27627;-68
2022/06/29 07:29:23;;;;;;;10.08;9.08;;;;;;;27.68;52.25;100414.30;2107045;84;29847;-69
2022/06/29 07:32:25;;;;;;;9.85;8.95;;;;;;;27.51;51.70;100411.36;2094365;84;32154;-66
2022/06/29 07:35:27;;;;;;;10.20;9.30;;;;;;;27.38;52.20;100403.18;2085437;85;32812;-62
2022/06/29 07:38:28;;;;;;;9.23;8.33;;;;;;;27.46;52.06;100395.94;2085642;85;29601;-68
2022/06/29 07:41:30;;;;;;;10.70;9.20;;;;;;;27.68;52.49;100397.78;2085695;85;27712;-68
2022/06/29 07:44:31;;;;;;;6.45;4.85;;;;;;;28.20;52.11;100403.48;2085525;85;29069;-66
2022/06/29 07:47:33;;;;;;;11.43;9.03;;;;;;;28.65;50.75;100402.07;2085065;85;31081;-68
2022/06/29 07:50:35;;;;;;;10.90;8.88;;;;;;;28.83;49.92;100391.17;2096842;84;33545;-66
2022/06/29 07:53:36;;;;;;;9.80;8.80;;;;;;;29.09;50.55;100405.25;2098727;84;29682;-62
2022/06/29 07:56:38;;;;;;;11.95;8.18;;;;;;;29.34;50.16;100421.44;2093482;84;27611;-62
2022/06/29 07:59:39;;;;;;;10.82;8.65;;;;;;;29.39;50.45;100426.39;2091236;83;28402;-67
2022/06/29 08:02:41;;;;;;;14.00;7.87;;;;;;;29.47;50.22;100435.06;2081917;85;31120;-73
2022/06/29 08:05:42;;;;;;;9.53;8.70;;;;;;;29.69;50.03;100431.75;2078830;85;32382;-71
2022/06/29 08:08:43;;;;;;;10.13;8.70;;;;;;;30.23;49.53;100421.97;2078891;85;29814;-72
2022/06/29 08:11:45;;;;;;;9.43;8.43;;;;;;;30.73;48.55;100411.29;2079034;85;27652;-70
2022/06/29 08:14:47;;;;;;;13.22;8.83;;;;;;;30.56;46.87;100390.91;2078920;85;29369;-68
2022/06/29 08:17:48;;;;;;;12.50;9.15;;;;;;;30.16;47.48;100393.45;2079015;85;31063;-70
2022/06/29 08:20:50;;;;;;;9.05;8.28;;;;;;;29.80;47.52;100396.67;2078998;85;33041;-68
2022/06/29 08:23:51;;;;;;;10.43;9.20;;;;;;;29.46;47.50;100400.23;2079294;85;29627;-68
2022/06/29 08:26:52;;;;;;;9.80;8.80;;;;;;;29.07;47.61;100403.75;2085482;85;27704;-68
2022/06/29 08:29:54;;;;;;;9.60;7.92;;;;;;;28.76;48.14;100391.10;2085272;85;28638;-68
2022/06/29 08:32:55;;;;;;;8.53;7.83;;;;;;;28.36;47.88;100383.16;2098458;83;31027;-70
2022/06/29 08:35:56;;;;;;;11.55;8.30;;;;;;;27.77;48.64;100372.95;2107023;83;32979;-73
2022/06/29 08:38:58;;;;;;;17.62;8.38;;;;;;;27.09;51.48;100346.16;2121622;83;29683;-73
2022/06/29 08:42:04;;;;;;;15.10;9.38;;;;;;;26.43;52.41;100321.31;2115043;84;27692;-74
2022/06/29 08:45:08;;;;;;;15.98;10.82;;;;;;;25.71;53.56;100317.62;2115038;83;28682;-75
2022/06/29 08:48:11;;;;;;;;;;;;;;;24.72;55.42;100342.27;2114414;83;31084;-76
2022/06/29 08:51:12;;;;;;;11.10;9.73;;;;;;;23.76;57.61;100353.75;2107192;84;33778;-67
2022/06/29 08:54:15;;;;;;;15.63;9.18;;;;;;;23.12;59.26;100357.53;2106923;84;30896;-63
2022/06/29 08:57:17;;;;;;;11.88;10.45;;;;;;;22.57;60.93;100364.81;2107150;84;27757;-63
2022/06/29 09:00:18;;;;;;;11.40;9.88;;;;;;;22.24;61.80;100373.09;2107347;84;28715;-64
2022/06/29 09:03:22;;;;;;;11.50;10.20;;;;;;;22.02;63.21;100364.27;2106893;84;31629;-65
2022/06/29 09:06:23;;;;;;;10.93;9.80;;;;;;;21.91;63.80;100350.83;2107335;84;32988;-65
2022/06/29 09:09:25;;;;;;;16.60;11.45;;;;;;;21.79;64.62;100357.80;2107176;84;29612;-65
2022/06/29 09:12:29;;;;;;;11.08;9.98;;;;;;;21.74;65.72;100361.50;2107302;84;27736;-66
2022/06/29 09:15:40;;;;;;;14.03;9.85;;;;;;;21.88;66.02;100368.84;2107036;84;29491;-67
2022/06/29 09:18:42;;;;;;;13.98;11.00;;;;;;;21.97;66.50;100382.45;2107117;84;30553;-66
2022/06/29 09:21:55;;;;;;;12.43;11.12;;;;;;;22.24;67.56;100386.22;2102425;84;33202;-64
2022/06/29 09:24:56;;;;;;;10.53;9.45;;;;;;;22.69;68.19;100387.31;2107700;84;30363;-66
2022/06/29 09:27:57;;;;;;;11.93;10.43;;;;;;;22.81;67.23;100416.65;2106815;84;27726;-64
2022/06/29 09:31:00;;;;;;;13.50;10.80;;;;;;;23.00;68.01;100441.60;2107257;84;28646;-64
2022/06/29 09:34:20;;;;;;;12.45;10.72;;;;;;;23.13;67.99;100445.83;2106714;84;30296;-63
2022/06/29 09:37:24;;;;;;;12.98;10.05;;;;;;;23.17;68.47;100415.29;2107133;84;33770;-65
2022/06/29 09:40:25;;;;;;;25.08;14.73;;;;;;;22.97;67.35;100416.47;2107181;84;29642;-62
2022/06/29 09:43:30;;;;;;;18.05;12.63;;;;;;;22.89;68.78;100409.89;2107187;84;27766;-66
2022/06/29 09:46:32;;;;;;;15.23;12.82;;;;;;;22.76;68.69;100384.83;2106252;84;29486;-69
2022/06/29 09:49:36;;;;;;;13.75;11.80;;;;;;;22.69;69.23;100382.34;2106782;84;31040;-70
2022/06/29 09:52:39;;;;;;;14.73;12.47;;;;;;;22.64;69.04;100373.77;2107494;84;33063;-66
2022/06/29 09:55:40;;;;;;;14.10;12.60;;;;;;;22.64;70.14;100357.39;2107071;84;29775;-68
2022/06/29 09:58:48;;;;;;;13.83;12.43;;;;;;;22.69;70.15;100354.55;2107193;84;27714;-67
2022/06/29 10:05:15;;;;;;;11.33;10.13;;;;;;;22.81;70.04;100364.75;2123462;83;31157;-71
2022/06/29 10:08:17;;;;;;;10.75;9.13;;;;;;;22.99;70.21;100367.48;2107081;84;33919;-70
2022/06/29 10:15:56;;;;;;;9.13;8.33;;;;;;;23.64;69.21;100354.56;2107076;84;27668;-67
2022/06/29 10:19:29;;;;;;;7.80;7.10;;;;;;;24.03;68.36;100359.59;2106874;84;28642;-67
2022/06/29 10:22:30;;;;;;;9.33;8.33;;;;;;;24.34;67.48;100356.84;2107475;84;31028;-62
2022/06/29 10:25:32;;;;;;;8.33;6.78;;;;;;;24.71;68.17;100363.31;2107310;84;32996;-62
2022/06/29 10:28:33;;;;;;;8.45;7.65;;;;;;;24.99;66.72;100364.39;2107284;84;29642;-64
2022/06/29 10:31:59;;;;;;;7.90;6.55;;;;;;;25.17;66.83;100357.40;2107390;84;27655;-63
2022/06/29 10:35:07;;;;;;;8.93;6.72;;;;;;;25.34;65.97;100359.61;2094351;84;29711;-62
2022/06/29 10:38:09;;;;;;;11.22;7.20;;;;;;;25.43;65.17;100355.02;2094288;85;32416;-62
2022/06/29 10:45:02;;;;;;;7.08;6.42;;;;;;;25.76;65.52;100353.59;2094468;85;30651;-63
2022/06/29 10:48:12;;;;;;;8.58;6.55;;;;;;;25.85;63.23;100352.22;2094496;85;27729;-63
2022/06/29 10:51:13;;;;;;;8.75;6.60;;;;;;;26.03;62.07;100341.01;2094560;84;29741;-64
2022/06/29 10:54:27;;;;;;;6.55;5.95;;;;;;;26.16;62.11;100326.76;2090235;84;31052;-66
2022/06/29 10:57:28;;;;;;;7.80;6.25;;;;;;;26.28;60.16;100318.45;2094737;85;32975;-66
2022/06/29 11:00:34;;;;;;;8.13;7.30;;;;;;;26.30;60.50;100312.27;2067181;85;29623;-66
2022/06/29 11:03:38;;;;;;;8.10;7.30;;;;;;;26.36;60.72;100306.57;2093774;85;27627;-67
2022/06/29 11:13:28;;;;;;;9.73;8.83;;;;;;;26.64;58.08;100312.42;2094310;85;33029;-63
2022/06/29 11:16:36;;;;;;;8.45;7.65;;;;;;;26.74;59.35;100302.57;2094504;85;29630;-65
2022/06/29 11:19:37;;;;;;;9.15;8.25;;;;;;;26.81;58.14;100296.69;2094836;84;28204;-65
2022/06/29 11:22:48;;;;;;;9.80;8.90;;;;;;;26.82;57.57;100296.19;2094686;84;28626;-65
2022/06/29 11:25:54;;;;;;;10.03;9.05;;;;;;;26.87;58.06;100284.13;2094561;84;31010;-65
2022/06/29 11:28:57;;;;;;;9.80;8.85;;;;;;;26.87;57.21;100288.26;2094980;83;32983;-65
2022/06/29 11:32:01;;;;;;;9.10;8.18;;;;;;;26.90;57.44;100285.66;2094866;82;29809;-65
2022/06/29 11:35:04;;;;;;;11.18;10.18;;;;;;;26.88;57.04;100281.72;2085757;84;27876;-65
2022/06/29 11:38:07;;;;;;;11.60;10.38;;;;;;;26.85;56.59;100284.84;2056731;85;28728;-65
2022/06/29 11:43:03;;;;;;;10.15;9.25;;;;;;;26.83;57.59;100286.91;2102832;82;31921;-65
2022/06/29 11:44:30;;;;;;;10.45;9.38;;;;;;;26.90;57.24;100286.49;2087397;84;32983;-65
2022/06/29 11:47:31;;;;;;;10.60;9.70;;;;;;;27.01;57.05;100287.95;2085253;85;29764;-64
2022/06/29 11:50:47;;;;;;;9.78;8.98;;;;;;;27.11;57.26;100291.33;2085654;85;27668;-64
2022/06/29 11:54:02;;;;;;;11.43;9.53;;;;;;;27.29;57.20;100290.14;2085444;85;28653;-65
2022/06/29 11:57:11;;;;;;;9.25;8.35;;;;;;;27.47;57.76;100288.97;2085197;85;31133;-67
2022/06/29 12:00:14;;;;;;;9.58;8.78;;;;;;;27.69;57.68;100289.94;2085379;85;32996;-65
2022/06/29 12:03:15;;;;;;;10.45;9.48;;;;;;;27.80;55.67;100289.98;2085658;83;29643;-66
2022/06/29 12:06:18;;;;;;;9.95;9.05;;;;;;;27.71;56.05;100279.05;2085594;85;28354;-66
2022/06/29 12:09:19;;;;;;;11.38;9.05;;;;;;;27.72;55.59;100275.77;2085376;85;29449;-65
2022/06/29 12:12:20;;;;;;;10.45;9.43;;;;;;;27.68;55.43;100276.67;2085371;85;31019;-66
2022/06/29 12:15:21;;;;;;;11.55;8.98;;;;;;;27.73;55.61;100271.47;2085160;85;33943;-66
2022/06/29 12:18:23;;;;;;;9.53;8.63;;;;;;;27.93;55.80;100274.15;2085363;85;29642;-66
2022/06/29 12:21:26;;;;;;;9.65;8.75;;;;;;;28.13;55.99;100278.06;2085671;84;27764;-64
2022/06/29 12:24:29;;;;;;;9.77;8.83;;;;;;;28.33;55.05;100272.78;2085254;85;29714;-65
2022/06/29 12:27:31;;;;;;;9.88;8.88;;;;;;;28.41;54.39;100278.70;2085316;84;31829;-65
2022/06/29 12:30:34;;;;;;;9.78;8.80;;;;;;;28.35;54.64;100278.95;2085343;85;33886;-65
2022/06/29 12:33:35;;;;;;;9.23;8.43;;;;;;;28.37;54.73;100279.29;2092144;84;30407;-64
2022/06/29 12:36:37;;;;;;;8.60;7.87;;;;;;;28.38;54.69;100278.25;2107239;84;27672;-65
2022/06/29 12:39:42;;;;;;;8.85;8.00;;;;;;;28.35;54.96;100274.83;2107200;84;28573;-65
2022/06/29 12:42:44;;;;;;;9.23;8.43;;;;;;;28.31;54.71;100279.01;2107253;84;31022;-65
2022/06/29 12:45:46;;;;;;;11.18;8.65;;;;;;;28.33;55.05;100282.97;2107238;84;32955;-66
2022/06/29 12:48:48;;;;;;;8.55;7.85;;;;;;;28.41;54.82;100286.97;2106971;84;30457;-66
2022/06/29 12:51:49;;;;;;;9.20;8.30;;;;;;;28.47;54.51;100289.47;2107351;84;27730;-66
2022/06/29 12:54:50;;;;;;;10.13;9.05;;;;;;;28.52;54.29;100290.28;2107221;84;29013;-66
2022/06/29 12:57:52;;;;;;;9.43;8.53;;;;;;;28.57;54.15;100293.28;2107315;84;31051;-66
2022/06/29 13:00:53;;;;;;;9.63;8.70;;;;;;;28.61;54.18;100288.59;2107458;84;32957;-66
2022/06/29 13:03:54;;;;;;;9.98;8.83;;;;;;;28.73;54.20;100287.55;2107259;84;29630;-66
2022/06/29 13:06:55;;;;;;;10.98;10.00;;;;;;;28.84;53.81;100292.23;2107559;84;27636;-65
2022/06/29 13:09:58;;;;;;;11.15;9.98;;;;;;;29.04;53.94;100290.50;2107016;84;29578;-66
2022/06/29 13:13:00;;;;;;;9.20;8.43;;;;;;;29.26;53.61;100278.06;2107244;84;31124;-65
2022/06/29 13:16:02;;;;;;;8.75;7.85;;;;;;;29.38;52.83;100274.27;2107219;84;32970;-65
2022/06/29 13:19:03;;;;;;;9.78;8.78;;;;;;;29.53;52.67;100267.27;2107175;84;30392;-66
2022/06/29 13:22:05;;;;;;;8.83;8.00;;;;;;;29.63;52.29;100264.12;2107179;84;28241;-65
2022/06/29 13:25:08;;;;;;;9.55;8.75;;;;;;;29.68;51.52;100258.34;2107178;84;28631;-66
2022/06/29 13:28:09;;;;;;;9.70;8.75;;;;;;;29.69;51.78;100250.89;2107297;84;31019;-66
2022/06/29 13:31:11;;;;;;;8.45;7.75;;;;;;;29.79;51.71;100252.74;2107307;84;32948;-66
2022/06/29 13:34:12;;;;;;;9.13;8.30;;;;;;;29.86;51.12;100252.27;2098237;83;29645;-66
2022/06/29 13:37:14;;;;;;;9.75;8.88;;;;;;;29.85;50.96;100258.84;2085452;85;27646;-66
2022/06/29 13:40:16;;;;;;;9.20;8.30;;;;;;;29.82;50.91;100254.27;2085574;84;28853;-66
2022/06/29 13:43:17;;;;;;;9.00;8.08;;;;;;;29.80;50.86;100253.61;2084996;85;31895;-65
2022/06/29 13:46:19;;;;;;;9.50;8.63;;;;;;;29.81;50.95;100253.94;2085316;85;32952;-66
2022/06/29 13:49:20;;;;;;;11.55;9.43;;;;;;;29.74;50.39;100251.14;2085438;84;29647;-65
2022/06/29 13:52:21;;;;;;;10.30;9.28;;;;;;;29.60;50.54;100245.22;2055043;85;27666;-65
2022/06/29 13:55:23;;;;;;;10.53;9.55;;;;;;;29.44;50.39;100229.31;2085651;84;28622;-65
2022/06/29 13:58:24;;;;;;;9.50;8.70;;;;;;;29.37;50.65;100235.30;2085473;84;31137;-65
2022/06/29 14:01:25;;;;;;;10.05;9.13;;;;;;;29.29;50.50;100242.34;2085472;85;33128;-65
2022/06/29 14:04:28;;;;;;;14.73;8.35;;;;;;;29.15;50.51;100239.45;2085579;85;30715;-65
2022/06/29 14:07:30;;;;;;;9.28;8.48;;;;;;;29.05;50.43;100240.34;2085509;85;27693;-66
2022/06/29 14:10:32;;;;;;;9.58;8.78;;;;;;;28.89;50.47;100234.56;2085154;84;28692;-66
2022/06/29 14:13:37;;;;;;;9.45;8.55;;;;;;;28.77;50.92;100219.95;2085441;85;31025;-66
2022/06/29 14:16:39;;;;;;;10.23;9.25;;;;;;;28.62;50.67;100215.00;2085373;85;33763;-66
2022/06/29 14:19:40;;;;;;;10.10;8.68;;;;;;;28.51;51.08;100210.87;2085466;85;29636;-65
2022/06/29 14:22:42;;;;;;;9.95;8.80;;;;;;;28.39;50.92;100200.05;2085581;85;27732;-66
2022/06/29 14:25:44;;;;;;;11.00;10.00;;;;;;;28.37;51.35;100173.20;2085485;85;28737;-65
2022/06/29 14:28:45;;;;;;;10.18;8.98;;;;;;;28.31;51.47;100170.72;2085519;85;30992;-65
2022/06/29 14:31:46;;;;;;;9.80;8.88;;;;;;;28.32;51.61;100189.80;2085518;85;34088;-65